EDT,Max TemperatureF,Mean TemperatureF,Min TemperatureF,Max Dew PointF,MeanDew PointF,Min DewpointF,Max Humidity, Mean Humidity, Min Humidity, Max Sea Level PressureIn, Mean Sea Level PressureIn, Min Sea Level PressureIn, Max VisibilityMiles, Mean VisibilityMiles, Min VisibilityMiles, Max Wind SpeedMPH, Mean Wind SpeedMPH, Max Gust SpeedMPH,PrecipitationIn, CloudCover, Events, WindDirDegrees
2013-4-1,80,70,60,63,58,54,100,72,42,29.99,29.94,29.90,10,10,1,16,9,22,0.00,3,,256
2013-4-2,80,64,48,54,49,46,100,63,32,30.13,30.06,29.99,10,10,4,9,3,,0.00,0,,56
2013-4-3,77,62,48,63,54,46,100,79,47,30.13,30.08,30.03,10,9,4,17,3,26,0.00,4,,88
2013-4-4,69,61,53,66,59,52,100,96,88,30.10,29.95,29.85,10,6,0,18,10,22,0.00,8,,54
2013-4-5,62,54,46,54,49,46,100,88,63,30.06,29.94,29.86,10,9,1,16,7,18,0.00,7,,2
2013-4-6,73,58,44,52,47,43,100,71,36,30.20,30.13,30.05,10,10,7,13,4,16,0.00,0,,81
2013-4-7,78,66,53,61,56,52,100,75,47,30.21,30.15,30.10,10,10,7,14,5,17,0.00,3,,117
2013-4-8,82,66,51,61,56,52,100,70,39,30.17,30.13,30.08,10,8,2,10,2,16,0.00,1,,151
2013-4-9,84,70,55,66,61,55,100,75,45,30.19,30.15,30.10,10,8,0,12,4,16,0.00,3,,155
2013-4-10,84,70,55,64,61,55,100,73,45,30.15,30.08,30.00,10,10,2,12,5,18,0.00,2,,151
2013-4-11,87,76,64,70,68,64,100,78,49,30.00,29.90,29.78,10,10,7,20,8,25,0.00,4,,175
2013-4-12,84,74,64,72,68,57,100,79,58,29.89,29.80,29.74,10,10,3,25,10,33,0.00,4,,232
2013-4-13,80,66,53,55,49,46,88,58,32,30.02,29.96,29.90,10,10,10,10,4,,0.00,0,,337
2013-4-14,66,62,57,64,58,54,100,87,72,30.05,29.98,29.87,10,9,0,17,4,25,0.00,3,,93
2013-4-15,78,66,55,64,61,55,100,87,61,30.14,30.01,29.90,10,8,0,8,3,,0.00,4,,25
2013-4-16,84,72,60,66,64,61,100,80,51,30.22,30.17,30.12,10,8,1,15,4,20,0.00,3,,101
2013-4-17,82,70,57,66,62,57,100,82,54,30.21,30.17,30.11,10,7,0,9,2,,0.00,2,,101
2013-4-18,84,72,60,68,64,61,100,78,51,30.11,30.04,29.97,10,9,0,12,5,17,0.00,2,,119
2013-4-19,87,72,57,72,66,55,100,82,49,30.04,29.94,29.85,10,10,4,22,9,32,0.00,3,,214
2013-4-20,66,57,48,55,48,32,100,79,50,30.22,30.12,30.05,10,9,1,13,8,16,0.00,2,,358
2013-4-21,73,60,46,57,53,32,100,74,53,30.25,30.21,30.17,10,10,2,17,6,25,0.00,6,,64
2013-4-22,73,64,55,55,53,48,94,70,50,30.20,30.16,30.11,10,10,7,17,10,23,0.00,5,,58
2013-4-23,78,64,50,57,53,48,100,72,41,30.19,30.14,30.09,10,10,3,10,3,,0.00,0,,77
2013-4-24,82,66,50,63,58,50,100,75,45,30.17,30.13,30.07,10,8,0,9,2,,0.00,2,,216
2013-4-25,84,72,60,64,61,57,88,71,48,30.22,30.16,30.10,10,10,10,9,4,17,0.00,2,,277
2013-4-26,80,66,53,61,53,43,82,61,39,30.33,30.27,30.21,10,10,1,17,6,20,0.00,1,,73
2013-4-27,82,68,55,61,56,54,100,68,39,30.29,30.23,30.16,10,10,7,14,7,22,0.00,1,,97
2013-4-28,84,70,57,66,62,57,100,77,45,30.18,30.08,29.97,10,8,2,14,6,18,0.00,3,,149
2013-4-29,82,73,64,66,65,63,100,88,54,30.02,29.99,29.95,10,9,4,15,5,20,0.00,4,,191
2013-4-30,82,71,60,66,63,61,100,83,51,30.07,30.00,29.96,10,7,0,9,2,,0.00,5,,44